Airfield :
LOGIN :

Register | Disclaimer

   EN    FR    IT 

 










Legend :    VFR   Marginal VFR   IFR   Intensive IFR   Very Intensive IFR
Visi :
Ceiling :
>= 8 km
>= 3000ft
5 to 8 km
1000 to 3000 ft
1500m to 5 km
500 to 1000 ft
800 to 1500m
200 to 500 ft
< 800m
< 200 ft
Symbols :   Thunderstorms  Fog  Heavy snow  Heavy precipitations  Wind > 20 kt
SIGMETs :     Misc.  Thunderstorms  Icing  Turbulence  Mountain Waves  Volcanic Ashes







- Airport Elevation : 137 ft


LIPS - Istrana AFB Treviso

CURRENT METAR :
  • 201755Z 03003KT CAVOK 05/05 Q1009 RMK BKN BKN120 VIS MIN 9999 WIND THR26 00000KT WIND THR08 03003KT BLU

EXPIRED METARs :
  • 201655Z 00000KT 9999 BKN100 05/04 Q1010 RMK BKN VIS MIN 9999 WIND THR26 00000KT WIND THR08 00000KT BLU
  • 201555Z 09003KT 9999 FEW035 BKN090 07/05 Q1010 RMK BKN VIS MIN 9999 WIND THR26 00000KT WIND THR08 09002KT BLU

TAF TAF LIPS
Valid from the 20 at 18:00 until the 21 at 03:00 UTC


201700Z 2018/2103 VRB05KT 9999 SCT030
TEMPO 2018/2103 5000 RA BR BKN030
No reported NOTAMs for that airfield.



MET'MAP, your aeronautical weather chart ! - Copyright ORBIFLY December 2007 - Disclaimer

ORBIFLY MET'MAP TEAM :

Programming & Development : Alexandra Zaïnal
Concept & Development : Baudouin d'Aumeries
Co-Development & Prog : Marc-Olivier Méhu
Technical & hardware support : Manuel Goepfert

Contact : metmap@orbifly.com




SOURCES & CREDITS :

   NOAA